Terminal Aerodrome Forecast
Issued by NWS

Home | Current Version | Previous Version | Text Only | Print | Product List | Glossary On
Versions: 1 2 3 4 5 6 7 8 9 10 11 12 13 14 15 16 17 18 19 20
943
FTUS46 KLOX 051142
TAFBUR
TAF
KBUR 051142Z 0512/0612 15006KT P6SM SCT025 OVC040
     FM051500 14008KT P6SM VCSH BKN025 OVC040
     FM051700 16010KT P6SM -SHRA BKN012 OVC025
     FM052100 18012G18KT P6SM -SHRA SCT007 BKN012 OVC025
     FM060300 17005KT P6SM VCSH BKN012 OVC025=

USA.gov is the U.S. government's official web portal to all federal, state and local government web resources and services.